Time;durP1;ratioP1;P1;durP2;ratioP2;P2;SDS_P1;SDS_P2;PMS_P1;PMS_P2;Temp;Humidity;BMP_temperature;BMP_pressure;BME280_temperature;BME280_humidity;BME280_pressure;Samples;Min_cycle;Max_cycle;Signal;HPM_P1;HPM_P2
2022/03/22 00:00:06;;;;;;;;;41.00;36.50;;;;;11.43;62.06;102201.41;5084021;27;45429;-80
2022/03/22 00:02:32;;;;;;;;;46.50;37.25;;;;;11.44;62.09;102194.41;5072324;28;47721;-81
2022/03/22 00:04:57;;;;;;;;;42.00;36.00;;;;;11.43;61.91;102205.75;5073501;28;45580;-81
2022/03/22 00:07:22;;;;;;;;;36.33;34.67;;;;;11.30;62.15;102184.03;5076045;27;45346;-80
2022/03/22 00:09:48;;;;;;;;;38.67;35.33;;;;;11.45;62.33;102220.81;5080342;27;45493;-80
2022/03/22 00:12:13;;;;;;;;;34.00;30.67;;;;;11.43;62.38;102229.44;5073574;27;45482;-80
2022/03/22 00:14:39;;;;;;;;;41.50;36.50;;;;;11.40;62.22;102224.03;5076689;27;45755;-81
2022/03/22 00:17:05;;;;;;;;;35.75;33.25;;;;;11.37;62.36;102224.75;5072637;27;45704;-80
2022/03/22 00:19:30;;;;;;;;;40.50;36.00;;;;;11.19;62.31;102198.34;5075579;27;45552;-80
2022/03/22 00:21:55;;;;;;;;;41.75;35.50;;;;;11.26;62.51;102221.53;5076901;27;46175;-81
2022/03/22 00:24:21;;;;;;;;;36.00;33.00;;;;;11.24;62.48;102219.66;5072508;27;45342;-80
2022/03/22 00:26:46;;;;;;;;;36.00;34.33;;;;;11.01;62.59;102192.94;5076133;28;45355;-80
2022/03/22 00:29:11;;;;;;;;;36.67;34.33;;;;;11.15;62.71;102230.56;5073695;27;45535;-81
2022/03/22 00:31:37;;;;;;;;;37.25;34.25;;;;;11.13;62.61;102236.53;5073947;27;46216;-81
2022/03/22 00:34:02;;;;;;;;;39.75;35.75;;;;;11.09;62.83;102235.50;5074320;27;45542;-80
2022/03/22 00:36:28;;;;;;;;;42.33;36.67;;;;;11.06;62.82;102238.84;5072641;27;45472;-81
2022/03/22 00:38:53;;;;;;;;;44.00;35.25;;;;;11.03;63.02;102236.06;5075804;27;45456;-80
2022/03/22 00:41:19;;;;;;;;;40.50;36.50;;;;;11.02;62.72;102238.56;5073411;27;45430;-80
2022/03/22 00:43:45;;;;;;;;;42.50;36.75;;;;;10.94;62.94;102235.53;5077595;27;45365;-80
2022/03/22 00:46:11;;;;;;;;;47.00;38.00;;;;;10.91;62.76;102243.22;5075768;27;46161;-79
2022/03/22 00:48:37;;;;;;;;;42.50;37.00;;;;;10.92;63.11;102237.16;5081442;27;45597;-80
2022/03/22 00:51:04;;;;;;;;;40.50;36.75;;;;;10.90;63.14;102244.06;5083082;28;46610;-80
2022/03/22 00:53:29;;;;;;;;;38.50;35.75;;;;;10.71;62.99;102221.03;5075064;27;45773;-80
2022/03/22 00:55:55;;;;;;;;;38.00;35.00;;;;;10.82;63.33;102251.50;5079429;27;45275;-81
2022/03/22 00:58:20;;;;;;;;;39.75;36.00;;;;;10.73;63.35;102227.28;5076027;27;45725;-80
2022/03/22 01:00:48;;;;;;;;;37.50;33.00;;;;;10.71;63.17;102233.28;5080657;27;46694;-81
2022/03/22 01:03:14;;;;;;;;;36.25;34.00;;;;;10.70;63.58;102228.84;5072710;27;45463;-80
2022/03/22 01:05:40;;;;;;;;;37.50;35.00;;;;;10.47;63.41;102193.34;5084444;27;45217;-81
2022/03/22 01:08:10;;;;;;;;;38.50;35.25;;;;;10.69;63.82;102233.22;5082816;27;45273;-81
2022/03/22 01:10:38;;;;;;;;;40.00;34.25;;;;;10.43;63.52;102191.34;5081131;27;45049;-80
2022/03/22 01:13:06;;;;;;;;;40.00;34.25;;;;;10.66;63.93;102235.66;5079018;28;45312;-80
2022/03/22 01:15:33;;;;;;;;;37.50;34.50;;;;;10.66;63.66;102235.66;5083421;27;45382;-81
2022/03/22 01:18:05;;;;;;;;;37.75;35.25;;;;;10.50;63.89;102210.19;5084106;27;45032;-81
2022/03/22 01:20:35;;;;;;;;;37.75;35.50;;;;;10.57;63.84;102237.75;5085328;28;47351;-81
2022/03/22 01:23:02;;;;;;;;;36.00;33.75;;;;;10.56;63.86;102234.22;5078568;28;45365;-80
2022/03/22 01:25:29;;;;;;;;;36.75;34.00;;;;;10.41;63.69;102216.66;5084870;28;45448;-81
2022/03/22 01:27:55;;;;;;;;;39.00;35.75;;;;;10.54;63.71;102229.66;5086597;27;45520;-80
2022/03/22 01:30:22;;;;;;;;;38.25;34.50;;;;;10.42;63.87;102211.47;5085781;28;45869;-80
2022/03/22 01:32:50;;;;;;;;;39.25;36.25;;;;;10.38;63.93;102211.19;5085925;27;45300;-81
2022/03/22 01:35:16;;;;;;;;;41.25;36.25;;;;;10.40;64.21;102220.09;5085722;27;45068;-80
2022/03/22 01:37:42;;;;;;;;;35.75;32.50;;;;;10.45;64.10;102231.78;5082195;27;44944;-80
2022/03/22 01:40:08;;;;;;;;;42.00;35.75;;;;;10.24;64.28;102200.75;5082341;28;45563;-81
2022/03/22 01:42:35;;;;;;;;;44.75;37.00;;;;;10.25;64.06;102207.84;5084409;28;45204;-80
2022/03/22 01:45:02;;;;;;;;;37.75;35.75;;;;;10.36;64.20;102229.50;5087099;28;45327;-81
2022/03/22 01:47:28;;;;;;;;;39.00;35.75;;;;;10.34;64.23;102228.50;5084372;28;45597;-80
2022/03/22 01:49:54;;;;;;;;;38.25;36.00;;;;;10.11;64.06;102187.72;5080801;27;45346;-80
2022/03/22 01:52:23;;;;;;;;;42.75;36.50;;;;;10.24;64.15;102210.38;5072413;27;45480;-80
2022/03/22 01:57:24;;;;;;;;;45.75;37.25;;;;;10.17;64.86;102200.28;5570486;22;45831;-84
2022/03/22 01:59:50;;;;;;;;;43.50;36.25;;;;;10.06;64.28;102191.78;4973188;28;48194;-83
2022/03/22 02:07:48;;;;;;;;;41.00;36.00;;;;;10.16;64.56;102219.50;4992810;28;45570;-84
2022/03/22 02:10:14;;;;;;;;;46.00;37.00;;;;;10.00;64.57;102197.56;4991387;28;46628;-83
2022/03/22 02:12:42;;;;;;;;;38.00;34.50;;;;;10.06;64.52;102221.56;4974923;28;45904;-84
2022/03/22 02:15:07;;;;;;;;;40.25;35.75;;;;;10.00;64.57;102212.41;4991930;28;45444;-84
2022/03/22 02:17:34;;;;;;;;;42.50;36.50;;;;;9.83;64.56;102190.38;4974115;28;45512;-84
2022/03/22 02:20:00;;;;;;;;;42.25;36.00;;;;;9.78;64.58;102187.47;4974512;28;47484;-83
2022/03/22 02:22:34;;;;;;;;;36.25;34.00;;;;;9.88;64.74;102214.28;4992127;28;45802;-83
2022/03/22 02:25:00;;;;;;;;;41.25;35.00;;;;;9.88;64.59;102215.19;4991517;28;45459;-85
2022/03/22 02:27:28;;;;;;;;;37.25;35.00;;;;;9.87;64.95;102223.00;4974477;28;45592;-83
2022/03/22 02:29:53;;;;;;;;;40.00;33.25;;;;;9.60;64.99;102170.59;4974107;28;48278;-84
2022/03/22 02:32:26;;;;;;;;;35.50;33.50;;;;;9.65;65.11;102169.16;4991252;28;45423;-84
2022/03/22 02:34:52;;;;;;;;;32.00;30.50;;;;;9.80;65.10;102203.31;4992231;28;45437;-83
2022/03/22 02:37:17;;;;;;;;;37.75;35.00;;;;;9.84;65.09;102218.44;4992028;28;45634;-84
2022/03/22 02:39:44;;;;;;;;;36.25;34.00;;;;;9.74;65.04;102205.56;4991621;28;46192;-84
2022/03/22 02:42:10;;;;;;;;;38.50;35.75;;;;;9.64;65.23;102184.81;4991850;28;45962;-84
2022/03/22 02:44:35;;;;;;;;;31.00;29.50;;;;;9.61;65.15;102187.28;4992157;28;45826;-84
2022/03/22 02:47:00;;;;;;;;;39.50;33.75;;;;;9.72;65.17;102215.09;4991898;28;45524;-85
2022/03/22 02:49:26;;;;;;;;;37.33;34.33;;;;;9.33;65.02;102151.44;4991875;28;46084;-84
2022/03/22 02:51:51;;;;;;;;;33.00;32.33;;;;;9.52;65.47;102182.38;4991913;28;45790;-84
2022/03/22 02:54:16;;;;;;;;;42.25;36.25;;;;;9.40;65.19;102155.34;4991436;28;45848;-84
2022/03/22 02:56:42;;;;;;;;;41.00;37.00;;;;;9.52;65.47;102188.50;4991878;28;45740;-84
2022/03/22 02:59:07;;;;;;;;;45.00;39.00;;;;;9.70;65.72;102219.31;4991282;28;45490;-84
2022/03/22 03:01:33;;;;;;;;;43.25;39.50;;;;;9.74;65.75;102222.22;4973868;28;45607;-85
2022/03/22 03:04:00;;;;;;;;;49.75;41.00;;;;;9.62;65.54;102202.22;4991939;28;45482;-83
2022/03/22 03:06:28;;;;;;;;;49.50;39.75;;;;;9.72;65.41;102213.38;4990477;28;45403;-84
2022/03/22 03:08:55;;;;;;;;;43.00;38.75;;;;;9.76;65.42;102214.47;4991076;28;46423;-84
2022/03/22 03:11:20;;;;;;;;;47.75;40.25;;;;;9.63;65.33;102202.28;4990536;28;45529;-84
2022/03/22 03:16:29;;;;;;;;;46.25;37.75;;;;;9.60;65.15;102209.06;4991218;28;45506;-85
2022/03/22 03:18:55;;;;;;;;;34.00;32.00;;;;;9.48;65.14;102190.84;4991272;28;45605;-83
2022/03/22 03:21:20;;;;;;;;;40.25;36.75;;;;;9.52;65.39;102213.84;4991328;28;45422;-83
2022/03/22 03:23:45;;;;;;;;;38.33;35.00;;;;;9.34;65.21;102183.84;4991396;28;45644;-84
2022/03/22 03:26:11;;;;;;;;;38.00;34.67;;;;;9.57;65.29;102239.56;4991006;28;45879;-84
2022/03/22 03:28:36;;;;;;;;;35.33;34.00;;;;;9.26;65.53;102189.53;4990863;28;46340;-84
2022/03/22 03:31:01;;;;;;;;;38.50;34.50;;;;;9.54;65.10;102248.97;4990634;28;45585;-83
2022/03/22 03:33:27;;;;;;;;;39.67;34.67;;;;;9.14;65.33;102172.09;4991393;28;45633;-84
2022/03/22 03:35:52;;;;;;;;;46.67;39.33;;;;;9.47;65.73;102231.03;4991712;28;45432;-83
2022/03/22 03:38:17;;;;;;;;;42.00;37.50;;;;;9.51;65.48;102248.78;4990706;28;45565;-83
2022/03/22 03:43:27;;;;;;;;;44.25;37.00;;;;;9.34;65.85;102233.69;4990534;28;45672;-84
2022/03/22 03:48:36;;;;;;;;;45.25;38.00;;;;;8.96;65.55;102182.31;4991182;28;45507;-85
2022/03/22 03:51:02;;;;;;;;;35.25;33.00;;;;;9.12;65.70;102215.69;4991126;28;45779;-84
2022/03/22 03:53:28;;;;;;;;;37.50;35.00;;;;;9.18;65.75;102237.97;4973156;28;45479;-84
2022/03/22 03:55:53;;;;;;;;;40.25;37.00;;;;;9.03;66.05;102223.88;4991066;28;45626;-83
2022/03/22 03:58:18;;;;;;;;;34.00;31.00;;;;;9.10;65.96;102238.28;4990836;28;45406;-83
2022/03/22 04:00:43;;;;;;;;;31.33;30.67;;;;;8.93;65.73;102209.25;4990160;28;45794;-84
2022/03/22 04:03:09;;;;;;;;;31.67;30.33;;;;;9.09;66.21;102237.38;4990760;28;45344;-83
2022/03/22 04:05:34;;;;;;;;;42.25;37.00;;;;;8.97;66.03;102232.25;4991490;28;45367;-84
2022/03/22 04:08:00;;;;;;;;;41.00;35.00;;;;;8.66;66.18;102181.22;4990694;28;46658;-83
2022/03/22 04:10:26;;;;;;;;;39.00;36.50;;;;;8.79;65.89;102200.50;4990239;28;45352;-84
2022/03/22 04:12:51;;;;;;;;;38.25;32.25;;;;;8.74;65.91;102201.91;4991178;28;45352;-84
2022/03/22 04:15:16;;;;;;;;;35.75;32.50;;;;;8.95;66.26;102246.94;4990532;28;45258;-83
2022/03/22 04:17:42;;;;;;;;;34.50;31.00;;;;;8.89;66.42;102229.94;4991750;28;45513;-83
2022/03/22 04:20:08;;;;;;;;;39.25;36.25;;;;;8.91;66.30;102257.13;4976223;28;46197;-83
2022/03/22 04:22:34;;;;;;;;;33.75;33.00;;;;;9.00;66.28;102263.91;4994587;28;45376;-84
2022/03/22 04:24:59;;;;;;;;;35.25;33.00;;;;;9.03;66.16;102265.81;4993471;28;45870;-83
2022/03/22 04:32:53;;;;;;;;;34.75;32.75;;;;;8.76;66.31;102239.59;4994547;28;45401;-84
2022/03/22 04:35:23;;;;;;;;;39.00;35.75;;;;;8.93;66.47;102271.28;4993659;28;45525;-83
2022/03/22 04:37:52;;;;;;;;;35.00;33.75;;;;;8.15;65.95;102143.81;4993892;28;45578;-84
2022/03/22 04:40:18;;;;;;;;;39.75;33.75;;;;;8.94;66.04;102288.81;4993201;28;46229;-83
2022/03/22 04:42:43;;;;;;;;;36.25;34.00;;;;;8.74;66.25;102256.94;4994296;28;45947;-83
2022/03/22 04:45:10;;;;;;;;;39.00;34.50;;;;;8.86;66.14;102279.53;4993319;28;45293;-84
2022/03/22 04:47:36;;;;;;;;;39.50;35.00;;;;;8.55;66.18;102225.09;4993850;28;46352;-84
2022/03/22 04:50:03;;;;;;;;;34.25;32.25;;;;;8.63;66.22;102246.56;4993337;28;45522;-84
2022/03/22 04:57:56;;;;;;;;;37.50;34.75;;;;;8.69;66.45;102274.09;4994190;28;45491;-84
2022/03/22 05:00:21;;;;;;;;;34.50;32.00;;;;;8.49;66.48;102246.56;4993093;28;45484;-84
2022/03/22 05:02:50;;;;;;;;;37.00;34.00;;;;;8.70;66.71;102281.13;4994383;28;45404;-85
2022/03/22 05:05:15;;;;;;;;;34.50;30.75;;;;;8.79;66.48;102300.09;4993758;28;45390;-84
2022/03/22 05:07:41;;;;;;;;;38.00;34.50;;;;;8.56;66.51;102263.56;4993716;28;45817;-85
2022/03/22 05:10:07;;;;;;;;;32.25;31.75;;;;;8.58;66.42;102263.72;4975255;28;45788;-85
2022/03/22 05:12:34;;;;;;;;;36.50;35.00;;;;;7.96;66.68;102172.19;4976491;28;45380;-85
2022/03/22 05:14:59;;;;;;;;;34.75;33.00;;;;;8.58;66.10;102282.94;4975294;28;45702;-84
2022/03/22 05:17:25;;;;;;;;;34.25;30.50;;;;;8.50;66.52;102273.66;4993655;28;45552;-84
2022/03/22 05:19:51;;;;;;;;;35.25;31.25;;;;;8.45;66.05;102270.72;4994127;28;45444;-84
2022/03/22 05:22:17;;;;;;;;;31.00;27.75;;;;;8.64;66.42;102304.31;4993207;28;45539;-84
2022/03/22 05:24:44;;;;;;;;;30.75;29.00;;;;;8.21;66.23;102235.88;4992817;28;45465;-83
2022/03/22 05:27:09;;;;;;;;;35.50;32.25;;;;;8.38;66.53;102267.59;4990793;28;45466;-84
2022/03/22 05:29:35;;;;;;;;;42.50;35.75;;;;;8.43;66.40;102287.16;4983322;28;45388;-84
2022/03/22 05:32:00;;;;;;;;;31.50;27.25;;;;;8.13;66.23;102234.47;4987139;28;45436;-84
2022/03/22 05:34:26;;;;;;;;;37.25;32.25;;;;;8.41;66.40;102292.28;4999546;28;45288;-84
2022/03/22 05:36:52;;;;;;;;;32.50;30.75;;;;;8.46;66.89;102311.84;4991097;28;45927;-81
2022/03/22 05:39:18;;;;;;;;;36.75;34.50;;;;;8.46;66.36;102311.84;4979495;28;45639;-83
2022/03/22 05:41:44;;;;;;;;;36.25;32.50;;;;;8.04;66.30;102244.31;4999683;28;45347;-83
2022/03/22 05:44:10;;;;;;;;;39.50;31.75;;;;;8.44;66.28;102323.03;4993038;28;45804;-81
2022/03/22 05:46:35;;;;;;;;;38.00;35.75;;;;;8.10;66.14;102270.91;4991581;28;46274;-83
2022/03/22 05:49:00;;;;;;;;;38.00;32.00;;;;;8.12;66.40;102274.53;4985988;28;45902;-84
2022/03/22 05:51:26;;;;;;;;;33.50;32.00;;;;;8.20;66.27;102294.31;4982627;28;45866;-82
2022/03/22 05:53:52;;;;;;;;;32.67;30.00;;;;;8.43;66.58;102342.19;4980196;28;45494;-83
2022/03/22 05:56:17;;;;;;;;;35.75;32.25;;;;;8.36;66.46;102321.56;4986448;28;45396;-85
2022/03/22 05:58:43;;;;;;;;;27.25;27.25;;;;;7.72;66.63;102221.13;4998272;28;46308;-84
2022/03/22 06:01:08;;;;;;;;;34.00;30.75;;;;;8.09;66.42;102273.44;5002230;28;45185;-83
2022/03/22 06:03:34;;;;;;;;;38.50;34.50;;;;;8.23;66.85;102307.63;5005825;28;45196;-83
2022/03/22 06:06:00;;;;;;;;;31.50;27.75;;;;;8.42;66.79;102337.72;5010270;28;45309;-84
2022/03/22 06:08:27;;;;;;;;;37.75;34.50;;;;;8.01;66.91;102273.78;4996677;28;45539;-85
2022/03/22 06:10:52;;;;;;;;;38.00;32.50;;;;;8.22;67.07;102303.16;4999670;28;46025;-83
2022/03/22 06:13:18;;;;;;;;;31.50;30.00;;;;;8.32;66.60;102315.19;5001382;28;45099;-84
2022/03/22 06:15:43;;;;;;;;;33.00;31.75;;;;;8.42;66.50;102332.47;5009613;28;45481;-83
2022/03/22 06:18:10;;;;;;;;;38.25;35.00;;;;;8.25;66.46;102313.88;5008032;28;45026;-83
2022/03/22 06:20:37;;;;;;;;;37.00;33.50;;;;;8.51;66.36;102354.06;4987213;28;45414;-83
2022/03/22 06:23:05;;;;;;;;;30.00;29.25;;;;;8.37;66.44;102328.63;4992518;28;45456;-84
2022/03/22 06:25:31;;;;;;;;;34.25;32.75;;;;;8.38;66.27;102325.25;4985700;28;46393;-83
2022/03/22 06:27:57;;;;;;;;;31.00;28.50;;;;;8.57;66.09;102370.25;4979964;28;45733;-82
2022/03/22 06:30:23;;;;;;;;;34.25;31.25;;;;;8.36;66.14;102332.97;4981510;28;45484;-84
2022/03/22 06:32:54;;;;;;;;;39.25;34.00;;;;;8.27;66.10;102306.09;4982773;28;45690;-84
2022/03/22 06:35:25;;;;;;;;;34.50;31.50;;;;;8.39;66.30;102319.19;4975044;28;45631;-83
2022/03/22 06:37:51;;;;;;;;;34.00;33.75;;;;;8.71;65.87;102377.31;4998756;28;46114;-84
2022/03/22 06:40:19;;;;;;;;;34.00;31.50;;;;;8.59;65.89;102349.38;4989331;28;45307;-84
2022/03/22 06:42:45;;;;;;;;;37.00;34.00;;;;;8.82;65.32;102383.31;4988961;28;45176;-83
2022/03/22 06:45:11;;;;;;;;;44.75;36.75;;;;;8.92;65.08;102379.59;4971525;28;46431;-83
2022/03/22 06:47:39;;;;;;;;;30.50;28.75;;;;;8.99;65.29;102379.19;4996166;28;45332;-84
2022/03/22 06:50:05;;;;;;;;;33.75;32.75;;;;;9.09;64.43;102376.38;4991666;28;45526;-83
2022/03/22 06:52:33;;;;;;;;;38.25;34.25;;;;;8.84;64.41;102312.63;5008898;28;45103;-84
2022/03/22 06:54:59;;;;;;;;;34.50;32.25;;;;;9.16;64.22;102368.13;5008504;28;45832;-84
2022/03/22 06:57:27;;;;;;;;;36.75;31.25;;;;;9.33;63.48;102384.06;5005694;28;45188;-83
2022/03/22 06:59:52;;;;;;;;;35.50;33.25;;;;;9.04;63.63;102317.47;4989200;28;45284;-83
2022/03/22 07:02:18;;;;;;;;;34.50;32.50;;;;;9.16;63.70;102328.78;5020310;28;45117;-83
2022/03/22 07:04:44;;;;;;;;;42.25;32.50;;;;;9.32;63.21;102349.03;5025645;28;45362;-85
2022/03/22 07:07:09;;;;;;;;;35.25;34.00;;;;;9.35;63.31;102336.09;5017830;28;45513;-85
2022/03/22 07:09:37;;;;;;;;;39.00;33.67;;;;;9.24;63.09;102310.91;5000950;28;45291;-84
2022/03/22 07:12:02;;;;;;;;;35.75;34.75;;;;;9.50;63.04;102341.44;4988621;28;45311;-84
2022/03/22 07:14:28;;;;;;;;;36.25;34.75;;;;;9.75;62.40;102378.97;5001441;28;46243;-83
2022/03/22 07:16:54;;;;;;;;;37.25;31.75;;;;;9.85;62.51;102374.28;5015715;28;45301;-84
2022/03/22 07:19:21;;;;;;;;;37.75;35.75;;;;;9.92;62.06;102384.38;5008574;28;45267;-84
2022/03/22 07:21:48;;;;;;;;;38.00;32.00;;;;;9.95;61.88;102374.06;5009259;28;45297;-85
2022/03/22 07:24:15;;;;;;;;;35.25;30.00;;;;;10.06;61.81;102388.78;5018687;28;45258;-83
2022/03/22 07:26:41;;;;;;;;;40.25;36.50;;;;;10.11;61.84;102395.25;5028846;28;45776;-85
2022/03/22 07:29:07;;;;;;;;;36.25;32.00;;;;;9.78;61.25;102329.25;5027947;28;45449;-84
2022/03/22 07:31:38;;;;;;;;;35.75;32.25;;;;;9.93;60.68;102341.53;5029308;28;45395;-85
2022/03/22 07:34:12;;;;;;;;;36.25;32.00;;;;;9.94;60.79;102328.50;5015960;28;45543;-85
2022/03/22 07:36:39;;;;;;;;;34.00;29.75;;;;;10.00;61.04;102338.47;5008671;28;45108;-84
2022/03/22 07:39:06;;;;;;;;;40.75;36.25;;;;;10.39;60.61;102396.97;5008955;28;45341;-84
2022/03/22 07:41:31;;;;;;;;;38.75;34.75;;;;;10.13;61.24;102348.03;5009044;28;45282;-84
2022/03/22 07:43:57;;;;;;;;;35.00;34.25;;;;;10.26;60.67;102364.69;5007694;28;45970;-84
2022/03/22 07:46:23;;;;;;;;;46.25;38.25;;;;;10.33;60.46;102371.22;5005264;28;46137;-85
2022/03/22 07:48:50;;;;;;;;;41.75;34.75;;;;;10.18;60.21;102318.59;5003318;28;45180;-84
2022/03/22 07:54:00;;;;;;;;;38.50;34.75;;;;;10.51;58.52;102366.19;5008364;28;45439;-84
2022/03/22 07:56:25;;;;;;;;;39.00;36.00;;;;;10.53;58.52;102368.09;5007793;28;45216;-84
2022/03/22 07:58:51;;;;;;;;;39.00;34.75;;;;;10.34;58.27;102320.47;5008028;28;45092;-84
2022/03/22 08:01:16;;;;;;;;;39.67;34.67;;;;;10.47;57.71;102330.03;5007983;28;45275;-83
2022/03/22 08:03:41;;;;;;;;;35.00;33.33;;;;;10.68;57.78;102359.31;5018332;28;45818;-84
2022/03/22 08:06:07;;;;;;;;;39.00;34.75;;;;;10.90;57.38;102394.00;5027828;28;45137;-84
2022/03/22 08:08:34;;;;;;;;;39.50;35.50;;;;;10.64;57.28;102342.47;5009799;28;45151;-85
2022/03/22 08:11:00;;;;;;;;;37.75;34.75;;;;;10.92;57.52;102376.56;5003288;28;45176;-84
2022/03/22 08:13:26;;;;;;;;;41.75;37.00;;;;;11.09;57.78;102398.63;5007033;28;46481;-84
2022/03/22 08:15:51;;;;;;;;;39.25;35.00;;;;;10.79;57.95;102335.50;5007875;28;45093;-84
2022/03/22 08:18:17;;;;;;;;;38.25;35.25;;;;;10.95;56.27;102353.06;5007370;28;45243;-83
2022/03/22 08:20:43;;;;;;;;;36.25;34.00;;;;;11.28;56.04;102406.78;5006266;28;45286;-85
2022/03/22 08:23:09;;;;;;;;;41.50;36.00;;;;;11.15;56.01;102377.94;4995771;28;45330;-86
2022/03/22 08:25:37;;;;;;;;;35.75;33.00;;;;;11.41;55.88;102403.13;4970544;28;45349;-84
2022/03/22 08:28:04;;;;;;;;;37.00;32.25;;;;;11.48;56.03;102407.94;4988139;28;45155;-83
2022/03/22 08:30:30;;;;;;;;;33.00;32.00;;;;;11.30;54.96;102357.75;4996943;28;45156;-86
2022/03/22 08:32:58;;;;;;;;;31.25;30.25;;;;;11.32;53.62;102350.84;5006256;28;45984;-85
2022/03/22 08:35:25;;;;;;;;;34.25;31.50;;;;;11.41;52.08;102368.00;5001750;28;45829;-84
2022/03/22 08:37:51;;;;;;;;;32.75;31.00;;;;;11.76;51.30;102413.03;5007706;28;45510;-85
2022/03/22 08:40:17;;;;;;;;;31.25;28.50;;;;;11.56;50.98;102363.59;5008861;28;45113;-83
2022/03/22 08:42:44;;;;;;;;;28.75;28.00;;;;;11.54;51.41;102341.53;5012531;28;45562;-84
2022/03/22 08:45:15;;;;;;;;;28.50;26.75;;;;;11.68;49.27;102358.13;4996303;28;45641;-83
2022/03/22 08:47:42;;;;;;;;;22.50;21.00;;;;;11.66;47.94;102342.22;4996180;28;45189;-84
2022/03/22 08:50:12;;;;;;;;;27.25;23.25;;;;;11.79;47.18;102349.09;4988913;28;45458;-82
2022/03/22 08:52:38;;;;;;;;;25.25;23.50;;;;;12.19;47.73;102410.19;4989181;28;47203;-84
2022/03/22 08:55:07;;;;;;;;;23.25;22.75;;;;;12.09;47.36;102379.78;5006839;28;46048;-84
2022/03/22 08:57:36;;;;;;;;;26.00;23.75;;;;;12.09;46.73;102365.69;5007480;28;45331;-85
2022/03/22 09:00:09;;;;;;;;;26.00;22.50;;;;;12.42;46.34;102408.78;4985759;28;45373;-82
2022/03/22 09:02:38;;;;;;;;;25.00;23.25;;;;;12.19;46.20;102357.47;4987921;28;45234;-84
2022/03/22 09:07:50;;;;;;;;;23.00;21.50;;;;;12.62;45.16;102407.22;4991691;28;45377;-83
2022/03/22 09:10:18;;;;;;;;;27.25;22.75;;;;;12.18;45.12;102325.75;4990416;28;45261;-84
2022/03/22 09:12:43;;;;;;;;;26.75;23.50;;;;;12.60;44.92;102386.00;4976676;28;47641;-85
2022/03/22 09:15:09;;;;;;;;;21.25;19.25;;;;;12.49;43.86;102357.28;5017386;28;45065;-84
2022/03/22 09:17:35;;;;;;;;;21.75;19.50;;;;;12.76;43.56;102390.38;5016018;28;45187;-85
2022/03/22 09:20:01;;;;;;;;;23.50;21.75;;;;;12.92;43.28;102400.00;4999434;28;45328;-84
2022/03/22 09:22:26;;;;;;;;;21.25;19.75;;;;;12.70;44.25;102355.75;4990469;28;45437;-85
2022/03/22 09:24:51;;;;;;;;;20.00;18.33;;;;;12.38;42.73;102281.16;4993403;28;45301;-83
2022/03/22 09:27:17;;;;;;;;;15.25;15.25;;;;;13.08;42.84;102404.31;4999505;28;45126;-84
2022/03/22 09:29:43;;;;;;;;;19.50;18.50;;;;;12.85;41.71;102351.25;5010868;28;45252;-82
2022/03/22 09:32:08;;;;;;;;;24.00;22.00;;;;;13.18;42.55;102411.88;5007837;28;45815;-84
2022/03/22 09:34:33;;;;;;;;;22.75;20.50;;;;;12.91;41.95;102348.94;4999630;28;45463;-85
2022/03/22 09:37:00;;;;;;;;;18.50;18.25;;;;;12.98;40.41;102358.06;5002655;28;45100;-84
2022/03/22 09:39:25;;;;;;;;;19.50;18.75;;;;;13.26;40.14;102393.81;4999097;28;45164;-85
2022/03/22 09:41:51;;;;;;;;;21.50;20.75;;;;;13.16;39.80;102371.31;5009540;28;45831;-84
2022/03/22 09:44:18;;;;;;;;;23.50;22.50;;;;;13.42;40.14;102407.84;5003730;28;45357;-84
2022/03/22 09:46:50;;;;;;;;;22.00;20.75;;;;;13.42;39.78;102397.28;4973932;28;45087;-84
2022/03/22 09:49:18;;;;;;;;;23.75;23.75;;;;;13.23;40.08;102341.75;5003383;28;45115;-85
2022/03/22 09:51:44;;;;;;;;;20.75;18.25;;;;;13.49;39.99;102381.72;5001140;28;46200;-82
2022/03/22 09:54:14;;;;;;;;;24.75;24.25;;;;;13.32;39.32;102330.75;4972823;28;45623;-84
2022/03/22 09:56:41;;;;;;;;;22.00;21.50;;;;;13.64;40.40;102382.47;5000823;28;45016;-84
2022/03/22 09:59:07;;;;;;;;;21.00;19.50;;;;;13.65;39.70;102366.72;5000669;28;45423;-82
2022/03/22 10:01:33;;;;;;;;;21.00;20.75;;;;;13.93;39.79;102391.81;4988475;28;46601;-83
2022/03/22 10:03:58;;;;;;;;;20.75;19.00;;;;;14.01;38.79;102387.78;4972333;28;45051;-84
2022/03/22 10:06:23;;;;;;;;;23.00;22.33;;;;;13.77;38.60;102345.25;5001405;28;45093;-83
2022/03/22 10:08:50;;;;;;;;;26.25;21.50;;;;;14.09;38.03;102383.78;4990460;28;45288;-84
2022/03/22 10:11:15;;;;;;;;;18.00;14.25;;;;;14.13;37.71;102377.75;4988953;28;45749;-83
2022/03/22 10:13:52;;;;;;;;;11.50;9.50;;;;;14.13;38.05;102356.63;4990171;28;45066;-83
2022/03/22 10:16:17;;;;;;;;;21.25;20.00;;;;;14.33;37.82;102373.38;4989335;28;45281;-84
2022/03/22 10:18:43;;;;;;;;;23.25;21.50;;;;;14.19;38.58;102332.22;4982169;28;45238;-83
2022/03/22 10:21:08;;;;;;;;;23.67;22.33;;;;;14.37;37.64;102354.19;5009101;28;46047;-82
2022/03/22 10:23:46;;;;;;;;;26.25;23.25;;;;;14.45;38.37;102355.44;5009734;28;45122;-84
2022/03/22 10:26:11;;;;;;;;;20.00;18.25;;;;;14.30;38.17;102315.09;5007433;28;45385;-84
2022/03/22 10:28:51;;;;;;;;;24.00;23.00;;;;;14.62;37.94;102355.31;5009608;28;45130;-84
2022/03/22 10:31:17;;;;;;;;;24.00;22.50;;;;;14.40;37.24;102311.09;5008626;28;46023;-83
2022/03/22 10:33:52;;;;;;;;;24.00;23.25;;;;;14.82;37.15;102378.25;4997005;28;44989;-83
2022/03/22 10:36:21;;;;;;;;;21.50;20.50;;;;;14.87;36.53;102368.75;4990620;28;45182;-83
2022/03/22 10:38:59;;;;;;;;;23.50;21.75;;;;;14.95;37.48;102374.41;4998931;28;45071;-84
2022/03/22 10:41:30;;;;;;;;;19.50;19.25;;;;;14.77;36.96;102320.66;4988708;28;45300;-84
2022/03/22 10:44:13;;;;;;;;;21.25;20.25;;;;;15.03;36.05;102351.81;4989621;28;45034;-83
2022/03/22 10:46:42;;;;;;;;;20.75;20.75;;;;;15.16;36.80;102362.06;4995284;28;45032;-83
2022/03/22 10:49:16;;;;;;;;;27.75;24.50;;;;;15.22;36.03;102361.41;4997685;28;45209;-83
2022/03/22 10:51:48;;;;;;;;;20.75;20.25;;;;;14.87;35.77;102293.72;4999832;28;45843;-83
2022/03/22 10:54:18;;;;;;;;;24.25;20.75;;;;;15.23;36.22;102335.00;5016213;28;45183;-82
2022/03/22 10:56:45;;;;;;;;;22.50;21.25;;;;;15.14;36.27;102299.28;5014434;28;45222;-83
2022/03/22 10:59:13;;;;;;;;;21.50;20.00;;;;;15.46;35.37;102335.00;5008447;28;45231;-83
2022/03/22 11:01:42;;;;;;;;;25.00;22.00;;;;;15.58;34.25;102340.81;5010757;28;45691;-83
2022/03/22 11:04:08;;;;;;;;;15.75;13.75;;;;;15.40;34.73;102300.31;4990817;28;45780;-84
2022/03/22 11:06:37;;;;;;;;;20.75;20.50;;;;;15.33;34.39;102275.34;5009520;28;44969;-83
2022/03/22 11:09:03;;;;;;;;;22.75;20.00;;;;;15.45;33.96;102273.16;5000601;28;45228;-84
2022/03/22 11:11:31;;;;;;;;;24.00;23.50;;;;;15.63;34.27;102285.34;4977577;28;47052;-82
2022/03/22 11:13:56;;;;;;;;;23.75;22.50;;;;;15.79;34.14;102292.16;4989101;28;45541;-83
2022/03/22 11:16:24;;;;;;;;;23.50;23.50;;;;;15.72;33.38;102273.38;5000150;28;45331;-83
2022/03/22 11:18:50;;;;;;;;;21.00;20.75;;;;;15.89;33.71;102292.56;4970649;28;45662;-84
2022/03/22 11:21:19;;;;;;;;;27.25;24.00;;;;;16.20;33.81;102322.88;4995767;28;45744;-83
2022/03/22 11:23:47;;;;;;;;;38.25;32.00;;;;;16.17;34.75;102314.81;4994612;28;45554;-83
2022/03/22 11:26:20;;;;;;;;;23.50;20.50;;;;;15.91;34.81;102256.41;4981348;28;45247;-82
2022/03/22 11:28:48;;;;;;;;;22.00;20.00;;;;;16.40;33.64;102321.88;4987788;28;45468;-83
2022/03/22 11:31:16;;;;;;;;;22.50;22.50;;;;;16.51;34.21;102324.91;4988401;28;46786;-83
2022/03/22 11:36:45;;;;;;;;;21.75;21.00;;;;;16.55;34.70;102299.34;4997723;28;45608;-83
2022/03/22 11:42:15;;;;;;;;;21.00;20.50;;;;;16.66;33.70;102305.94;4994808;28;45327;-81
2022/03/22 11:42:16;;;;;;;;;20.75;19.00;;;;;16.71;33.38;102305.28;4998670;28;45579;-83
2022/03/22 11:44:42;;;;;;;;;22.25;20.50;;;;;16.60;33.14;102279.16;4998713;28;45440;-82